createdAt,value
2023-04-18T00:02:36.501Z,10.08
2023-04-18T00:05:40.843Z,10.02
2023-04-18T00:08:44.870Z,9.95
2023-04-18T00:11:48.886Z,9.89
2023-04-18T00:14:53.094Z,9.89
2023-04-18T00:17:57.456Z,9.94
2023-04-18T00:21:02.063Z,9.97
2023-04-18T00:24:06.984Z,9.99
2023-04-18T00:27:10.999Z,9.98
2023-04-18T00:30:15.514Z,9.92
2023-04-18T00:33:19.339Z,9.93
2023-04-18T00:36:23.355Z,9.95
2023-04-18T00:39:27.471Z,9.98
2023-04-18T00:42:32.103Z,9.98
2023-04-18T00:45:37.135Z,9.99
2023-04-18T00:48:41.450Z,9.96
2023-04-18T00:51:46.316Z,9.91
2023-04-18T00:54:50.628Z,9.90
2023-04-18T00:57:54.639Z,9.89
2023-04-18T01:00:58.655Z,9.88
2023-04-18T01:04:03.026Z,9.90
2023-04-18T01:07:08.528Z,9.94
2023-04-18T01:10:12.750Z,9.94
2023-04-18T01:13:19.640Z,9.92
2023-04-18T01:16:23.876Z,9.89
2023-04-18T01:19:27.972Z,9.88
2023-04-18T01:22:33.566Z,9.87
2023-04-18T01:25:38.966Z,9.86
2023-04-18T01:28:42.987Z,9.84
2023-04-18T01:31:47.352Z,9.85
2023-04-18T01:34:52.968Z,9.81
2023-04-18T01:37:57.672Z,9.77
2023-04-18T01:41:02.521Z,9.76
2023-04-18T01:44:06.502Z,9.75
2023-04-18T01:47:10.668Z,9.75
2023-04-18T01:50:14.690Z,9.72
2023-04-18T01:53:20.324Z,9.71
2023-04-18T01:56:24.314Z,9.72
2023-04-18T01:59:28.452Z,9.78
2023-04-18T02:02:33.355Z,9.82
2023-04-18T02:05:37.762Z,9.86
2023-04-18T02:08:43.595Z,9.87
2023-04-18T02:11:47.611Z,9.86
2023-04-18T02:14:56.129Z,9.82
2023-04-18T02:18:00.504Z,9.78
2023-04-18T02:21:04.873Z,9.76
2023-04-18T02:24:08.789Z,9.74
2023-04-18T02:27:13.029Z,9.76
2023-04-18T02:30:17.029Z,9.75
2023-04-18T02:33:21.147Z,9.77
2023-04-18T02:36:28.231Z,9.77
2023-04-18T02:39:32.474Z,9.77
2023-04-18T02:42:36.627Z,9.73
2023-04-18T02:45:40.650Z,9.75
2023-04-18T02:48:44.706Z,9.79
2023-04-18T02:51:49.640Z,9.84
2023-04-18T02:54:54.168Z,9.84
2023-04-18T02:58:01.968Z,9.76
2023-04-18T03:01:24.359Z,9.73
2023-04-18T03:04:33.574Z,9.72
2023-04-18T03:07:40.756Z,9.77
2023-04-18T03:10:44.761Z,9.81
2023-04-18T03:13:49.296Z,9.87
2023-04-18T03:16:55.203Z,9.89
2023-04-18T03:20:02.546Z,9.88
2023-04-18T03:23:06.702Z,9.85
2023-04-18T03:26:13.998Z,9.84
2023-04-18T03:29:18.457Z,9.87
2023-04-18T03:32:22.940Z,9.91
2023-04-18T03:35:27.027Z,9.94
2023-04-18T03:38:31.760Z,9.92
2023-04-18T03:41:35.778Z,9.85
2023-04-18T03:44:40.200Z,9.83
2023-04-18T03:47:44.515Z,9.84
2023-04-18T03:50:48.550Z,9.88
2023-04-18T03:53:52.768Z,9.92
2023-04-18T03:56:57.655Z,9.95
2023-04-18T04:00:02.044Z,9.96
2023-04-18T04:03:19.650Z,9.95
2023-04-18T04:06:24.498Z,9.96
2023-04-18T04:09:28.394Z,9.94
2023-04-18T04:12:32.498Z,9.96
2023-04-18T04:15:38.631Z,9.97
2023-04-18T04:18:44.190Z,9.93
2023-04-18T04:21:49.592Z,9.88
2023-04-18T04:24:53.975Z,9.86
2023-04-18T04:28:03.051Z,9.90
2023-04-18T04:31:10.363Z,9.93
2023-04-18T04:34:16.953Z,9.96
2023-04-18T04:37:21.114Z,10.00
2023-04-18T04:40:41.539Z,10.01
2023-04-18T04:43:48.851Z,10.02
2023-04-18T04:46:56.130Z,10.02
2023-04-18T04:50:06.214Z,9.99
2023-04-18T04:53:11.940Z,9.95
2023-04-18T04:56:16.237Z,9.97
2023-04-18T04:59:20.987Z,10.02
2023-04-18T05:02:25.234Z,10.03
2023-04-18T05:05:30.230Z,10.05
2023-04-18T05:08:34.579Z,10.07
2023-04-18T05:11:38.574Z,10.04
2023-04-18T05:14:42.621Z,10.03
2023-04-18T05:17:46.627Z,9.99
2023-04-18T05:20:50.727Z,10.00
2023-04-18T05:23:54.750Z,10.03
2023-04-18T05:26:59.075Z,10.05
2023-04-18T05:30:03.195Z,10.12
2023-04-18T05:33:07.388Z,10.22
2023-04-18T05:36:11.425Z,10.30
2023-04-18T05:39:15.452Z,10.36
2023-04-18T05:42:19.464Z,10.42
2023-04-18T05:45:23.482Z,10.43
2023-04-18T05:48:27.497Z,10.43
2023-04-18T05:51:32.118Z,10.46
2023-04-18T05:54:36.553Z,10.49
2023-04-18T05:57:41.706Z,10.54
2023-04-18T06:00:45.818Z,10.60
2023-04-18T06:03:50.081Z,10.63
2023-04-18T06:06:54.468Z,10.65
2023-04-18T06:09:58.476Z,10.65
2023-04-18T06:13:02.588Z,10.70
2023-04-18T06:16:07.314Z,10.77
2023-04-18T06:19:11.444Z,10.84
2023-04-18T06:22:15.636Z,10.89
2023-04-18T06:25:20.249Z,10.91
2023-04-18T06:28:24.517Z,10.95
2023-04-18T06:31:28.820Z,11.01
2023-04-18T06:34:33.363Z,11.07
2023-04-18T06:37:37.462Z,11.15
2023-04-18T06:40:41.647Z,11.23
2023-04-18T06:43:59.714Z,11.31
2023-04-18T06:47:07.255Z,11.39
2023-04-18T06:50:11.379Z,11.41
2023-04-18T06:53:15.995Z,11.44
2023-04-18T06:56:20.625Z,11.47
2023-04-18T06:59:24.623Z,11.47
2023-04-18T07:02:28.715Z,11.52
2023-04-18T07:05:32.875Z,11.59
2023-04-18T07:08:37.106Z,11.65
2023-04-18T07:11:41.316Z,11.70
2023-04-18T07:14:45.311Z,11.71
2023-04-18T07:17:49.370Z,11.74
2023-04-18T07:20:53.464Z,11.73
2023-04-18T07:23:57.479Z,11.71
2023-04-18T07:27:03.302Z,11.73
2023-04-18T07:30:08.441Z,11.76
2023-04-18T07:33:12.391Z,11.76
2023-04-18T07:36:16.390Z,11.77
2023-04-18T07:39:20.340Z,11.77
2023-04-18T07:42:24.307Z,11.72
2023-04-18T07:45:28.238Z,11.64
2023-04-18T07:48:32.373Z,11.60
2023-04-18T07:51:36.354Z,11.59
2023-04-18T07:54:40.642Z,11.59
2023-04-18T07:57:45.964Z,11.64
2023-04-18T08:00:51.098Z,11.70
2023-04-18T08:03:56.797Z,11.72
2023-04-18T08:07:01.500Z,11.76
2023-04-18T08:10:06.008Z,11.80
2023-04-18T08:13:10.237Z,11.86
2023-04-18T08:16:16.865Z,11.96
2023-04-18T08:19:21.424Z,12.07
2023-04-18T08:22:25.390Z,12.16
2023-04-18T08:25:29.800Z,12.24
2023-04-18T08:28:33.794Z,12.28
2023-04-18T08:31:39.170Z,12.37
2023-04-18T08:34:43.667Z,12.38
2023-04-18T08:37:47.786Z,12.46
2023-04-18T08:40:51.717Z,12.60
2023-04-18T08:43:57.081Z,12.70
2023-04-18T08:47:01.663Z,12.76
2023-04-18T08:50:07.702Z,12.84
2023-04-18T08:53:12.067Z,12.93
2023-04-18T08:56:16.769Z,13.02
2023-04-18T08:59:20.815Z,13.13
2023-04-18T09:02:39.093Z,13.20
2023-04-18T09:05:43.343Z,13.22
2023-04-18T09:08:58.943Z,13.28
2023-04-18T09:12:07.955Z,13.39
2023-04-18T09:15:14.276Z,13.54
2023-04-18T09:18:18.377Z,13.69
2023-04-18T09:21:22.519Z,13.81
2023-04-18T09:24:28.595Z,13.93
2023-04-18T09:27:35.135Z,14.00
2023-04-18T09:30:42.266Z,14.09
2023-04-18T09:33:56.953Z,14.16
2023-04-18T09:37:09.266Z,14.25
2023-04-18T09:40:21.553Z,14.36
2023-04-18T09:43:25.636Z,14.48
2023-04-18T09:46:29.794Z,14.59
2023-04-18T09:49:33.992Z,14.68
2023-04-18T09:52:40.553Z,14.77
2023-04-18T09:55:45.840Z,14.87
2023-04-18T09:58:57.055Z,14.99
2023-04-18T10:02:03.036Z,15.12
2023-04-18T10:05:08.221Z,15.24
2023-04-18T10:08:14.059Z,15.37
2023-04-18T10:11:19.306Z,15.43
2023-04-18T10:14:27.346Z,15.52
2023-04-18T10:18:03.714Z,15.68
2023-04-18T10:21:09.398Z,15.89
2023-04-18T10:24:32.190Z,15.98
2023-04-18T10:27:48.487Z,16.03
2023-04-18T10:31:12.236Z,16.09
2023-04-18T10:34:19.816Z,16.11
2023-04-18T10:37:26.967Z,16.13
2023-04-18T10:40:35.092Z,16.13
2023-04-18T10:44:10.423Z,16.07
2023-04-18T10:47:19.922Z,16.03
2023-04-18T10:50:24.099Z,15.88
2023-04-18T10:53:28.035Z,15.86
2023-04-18T10:56:32.008Z,15.91
2023-04-18T10:59:42.368Z,16.00
2023-04-18T11:02:50.911Z,16.17
2023-04-18T11:06:02.857Z,16.48
2023-04-18T11:09:14.470Z,16.73
2023-04-18T11:12:18.587Z,16.84
2023-04-18T11:15:25.412Z,16.86
2023-04-18T11:18:42.134Z,16.83
2023-04-18T11:21:46.234Z,16.83
2023-04-18T11:24:50.349Z,16.84
2023-04-18T11:27:57.341Z,16.81
2023-04-18T11:31:02.951Z,16.79
2023-04-18T11:34:07.112Z,16.77
2023-04-18T11:37:11.637Z,16.82
2023-04-18T11:40:16.372Z,16.88
2023-04-18T11:43:25.005Z,17.03
2023-04-18T11:46:41.908Z,17.20
2023-04-18T11:49:46.232Z,17.36
2023-04-18T11:52:52.001Z,17.50
2023-04-18T11:55:56.500Z,17.64
2023-04-18T11:59:07.867Z,17.71
2023-04-18T12:02:16.759Z,17.72
2023-04-18T12:05:32.764Z,17.74
2023-04-18T12:08:37.039Z,17.68
2023-04-18T12:11:42.439Z,17.60
2023-04-18T12:14:46.523Z,17.53
2023-04-18T12:17:53.595Z,17.44
2023-04-18T12:20:58.759Z,17.35
2023-04-18T12:24:14.200Z,17.29
2023-04-18T12:27:18.369Z,17.27
2023-04-18T12:30:25.759Z,17.29
2023-04-18T12:33:30.687Z,17.29
2023-04-18T12:36:34.805Z,17.26
2023-04-18T12:39:38.823Z,17.28
2023-04-18T12:42:43.039Z,17.29
2023-04-18T12:45:47.479Z,17.32
2023-04-18T12:48:51.577Z,17.40
2023-04-18T12:51:55.907Z,17.50
2023-04-18T12:55:00.227Z,17.61
2023-04-18T12:58:04.450Z,17.74
2023-04-18T13:01:09.326Z,17.70
2023-04-18T13:04:13.878Z,17.67
2023-04-18T13:08:08.517Z,17.69
2023-04-18T13:11:18.758Z,17.73
2023-04-18T13:14:22.825Z,17.77
2023-04-18T13:17:27.124Z,17.78
2023-04-18T13:20:31.345Z,17.82
2023-04-18T13:23:35.458Z,17.84
2023-04-18T13:26:39.482Z,17.79
2023-04-18T13:29:43.686Z,17.70
2023-04-18T13:32:47.740Z,17.60
2023-04-18T13:35:54.599Z,17.55
2023-04-18T13:38:58.819Z,17.56
2023-04-18T13:42:03.579Z,17.61
2023-04-18T13:45:08.296Z,17.69
2023-04-18T13:48:14.414Z,17.70
2023-04-18T13:51:19.688Z,17.67
2023-04-18T13:54:26.702Z,17.61
2023-04-18T13:57:32.366Z,17.52
2023-04-18T14:00:36.434Z,17.48
2023-04-18T14:03:43.061Z,17.36
2023-04-18T14:06:48.873Z,17.27
2023-04-18T14:09:54.074Z,17.18
2023-04-18T14:12:59.273Z,17.12
2023-04-18T14:19:31.001Z,16.99
2023-04-18T14:22:35.172Z,16.97
2023-04-18T14:25:39.193Z,16.94
2023-04-18T14:28:43.146Z,16.91
2023-04-18T14:31:47.152Z,16.86
2023-04-18T14:34:51.337Z,16.81
2023-04-18T14:37:55.359Z,16.75
2023-04-18T14:40:59.578Z,16.70
2023-04-18T14:44:04.244Z,16.63
2023-04-18T14:47:08.318Z,16.53
2023-04-18T14:50:12.566Z,16.46
2023-04-18T14:53:16.753Z,16.43
2023-04-18T14:56:21.612Z,16.41
2023-04-18T14:59:28.086Z,16.34
2023-04-18T15:02:32.281Z,16.28
2023-04-18T15:05:42.752Z,16.24
2023-04-18T15:08:47.282Z,16.17
2023-04-18T15:11:52.120Z,16.13
2023-04-18T15:14:56.141Z,16.09
2023-04-18T15:18:00.903Z,16.03
2023-04-18T15:21:04.992Z,15.99
2023-04-18T15:24:09.015Z,15.90
2023-04-18T15:27:13.133Z,15.85
2023-04-18T15:30:17.551Z,15.84
2023-04-18T15:33:21.899Z,15.84
2023-04-18T15:36:25.845Z,15.84
2023-04-18T15:39:29.804Z,15.81
2023-04-18T15:42:34.128Z,15.78
2023-04-18T15:45:38.148Z,15.75
2023-04-18T15:48:42.054Z,15.71
2023-04-18T15:51:46.132Z,15.67
2023-04-18T15:54:52.035Z,15.59
2023-04-18T15:57:56.362Z,15.51
2023-04-18T16:01:00.387Z,15.47
2023-04-18T16:04:04.652Z,15.43
2023-04-18T16:07:09.219Z,15.39
2023-04-18T16:10:15.210Z,15.35
2023-04-18T16:13:19.502Z,15.32
2023-04-18T16:16:23.625Z,15.30
2023-04-18T16:19:27.748Z,15.26
2023-04-18T16:22:31.776Z,15.22
2023-04-18T16:25:35.765Z,15.18
2023-04-18T16:28:39.790Z,15.15
2023-04-18T16:31:43.825Z,15.13
2023-04-18T16:34:48.474Z,15.11
2023-04-18T16:37:52.584Z,15.10
2023-04-18T16:41:01.550Z,15.07
2023-04-18T16:44:05.706Z,15.02
2023-04-18T16:47:09.969Z,14.98
2023-04-18T16:50:14.418Z,14.95
2023-04-18T16:53:18.323Z,14.93
2023-04-18T16:56:22.277Z,14.91
2023-04-18T16:59:26.310Z,14.88
2023-04-18T17:02:30.911Z,14.85
2023-04-18T17:05:36.360Z,14.81
2023-04-18T17:08:40.400Z,14.76
2023-04-18T17:11:44.410Z,14.72
2023-04-18T17:14:48.423Z,14.70
2023-04-18T17:17:52.531Z,14.67
2023-04-18T17:20:56.763Z,14.61
2023-04-18T17:24:03.826Z,14.57
2023-04-18T17:27:07.971Z,14.52
2023-04-18T17:30:12.490Z,14.48
2023-04-18T17:33:16.487Z,14.42
2023-04-18T17:36:20.826Z,14.34
2023-04-18T17:39:24.960Z,14.27
2023-04-18T17:42:28.969Z,14.21
2023-04-18T17:45:32.990Z,14.14
2023-04-18T17:48:37.099Z,14.09
2023-04-18T17:51:41.120Z,14.06
2023-04-18T17:54:45.089Z,14.03
2023-04-18T17:57:49.055Z,14.00
2023-04-18T18:00:53.420Z,13.97
2023-04-18T18:03:57.589Z,13.94
2023-04-18T18:07:01.783Z,13.91
2023-04-18T18:10:07.090Z,13.86
2023-04-18T18:13:11.084Z,13.81
2023-04-18T18:16:15.303Z,13.76
2023-04-18T18:19:21.168Z,13.70
2023-04-18T18:22:26.302Z,13.65
2023-04-18T18:25:31.244Z,13.59
2023-04-18T18:28:35.354Z,13.54
2023-04-18T18:31:39.650Z,13.50
2023-04-18T18:34:43.790Z,13.46
2023-04-18T18:37:48.055Z,13.42
2023-04-18T18:40:52.025Z,13.36
2023-04-18T18:43:56.386Z,13.32
2023-04-18T18:47:00.363Z,13.26
2023-04-18T18:50:04.790Z,13.22
2023-04-18T18:53:08.794Z,13.17
2023-04-18T18:56:12.826Z,13.13
2023-04-18T18:59:17.784Z,13.07
2023-04-18T19:02:21.831Z,13.01
2023-04-18T19:05:26.103Z,12.98
2023-04-18T19:08:31.050Z,12.97
2023-04-18T19:11:35.061Z,12.95
2023-04-18T19:14:40.706Z,12.95
2023-04-18T19:17:46.414Z,12.94
2023-04-18T19:20:50.800Z,12.94
2023-04-18T19:23:54.803Z,12.95
2023-04-18T19:26:59.730Z,12.96
2023-04-18T19:30:04.021Z,12.96
2023-04-18T19:33:08.053Z,12.95
2023-04-18T19:36:12.090Z,12.95
2023-04-18T19:39:16.906Z,12.95
2023-04-18T19:42:20.935Z,12.97
2023-04-18T19:45:24.931Z,12.99
2023-04-18T19:48:28.820Z,13.00
2023-04-18T19:51:32.891Z,13.01
2023-04-18T19:54:37.004Z,13.02
2023-04-18T19:57:42.150Z,13.02
2023-04-18T20:00:46.509Z,13.01
2023-04-18T20:03:50.615Z,13.01
2023-04-18T20:06:56.350Z,12.99
2023-04-18T20:10:00.545Z,12.97
2023-04-18T20:13:04.997Z,12.99
2023-04-18T20:16:09.382Z,12.98
2023-04-18T20:19:14.000Z,12.98
2023-04-18T20:22:19.183Z,12.96
2023-04-18T20:25:23.305Z,12.97
2023-04-18T20:28:27.538Z,12.97
2023-04-18T20:31:31.432Z,12.94
2023-04-18T20:34:36.071Z,12.93
2023-04-18T20:37:41.457Z,12.92
2023-04-18T20:40:45.446Z,12.88
2023-04-18T20:43:50.885Z,12.86
2023-04-18T20:46:55.101Z,12.82
2023-04-18T20:50:00.255Z,12.80
2023-04-18T20:53:04.305Z,12.78
2023-04-18T20:56:08.241Z,12.73
2023-04-18T20:59:12.167Z,12.67
2023-04-18T21:02:16.688Z,12.62
2023-04-18T21:05:20.725Z,12.57
2023-04-18T21:08:24.750Z,12.53
2023-04-18T21:11:28.765Z,12.48
2023-04-18T21:14:32.815Z,12.44
2023-04-18T21:17:36.924Z,12.42
2023-04-18T21:20:40.834Z,12.41
2023-04-18T21:23:44.799Z,12.39
2023-04-18T21:26:48.724Z,12.37
2023-04-18T21:29:53.359Z,12.34
2023-04-18T21:32:57.328Z,12.31
2023-04-18T21:36:01.408Z,12.30
2023-04-18T21:39:05.502Z,12.26
2023-04-18T21:42:10.879Z,12.22
2023-04-18T21:45:14.812Z,12.19
2023-04-18T21:48:19.204Z,12.16
2023-04-18T21:51:23.221Z,12.14
2023-04-18T21:54:27.118Z,12.11
2023-04-18T21:57:31.048Z,12.09
2023-04-18T22:00:34.956Z,12.04
2023-04-18T22:03:39.126Z,12.00
2023-04-18T22:06:43.308Z,11.96
2023-04-18T22:09:47.307Z,11.93
2023-04-18T22:12:54.153Z,11.90
2023-04-18T22:16:02.314Z,11.88
2023-04-18T22:19:07.009Z,11.86
2023-04-18T22:22:11.461Z,11.84
2023-04-18T22:25:15.688Z,11.81
2023-04-18T22:28:20.035Z,11.79
2023-04-18T22:31:24.121Z,11.76
2023-04-18T22:34:28.359Z,11.72
2023-04-18T22:37:32.371Z,11.71
2023-04-18T22:40:36.327Z,11.68
2023-04-18T22:43:40.284Z,11.65
2023-04-18T22:46:45.036Z,11.59
2023-04-18T22:49:49.342Z,11.56
2023-04-18T22:52:53.695Z,11.55
2023-04-18T22:55:57.664Z,11.52
2023-04-18T22:59:01.565Z,11.50
2023-04-18T23:02:05.899Z,11.48
2023-04-18T23:05:10.896Z,11.45
2023-04-18T23:08:14.987Z,11.43
2023-04-18T23:11:19.000Z,11.40
2023-04-18T23:14:22.946Z,11.36
2023-04-18T23:17:27.002Z,11.32
2023-04-18T23:20:31.152Z,11.28
2023-04-18T23:23:35.104Z,11.24
2023-04-18T23:26:39.707Z,11.20
2023-04-18T23:29:46.974Z,11.17
2023-04-18T23:32:50.985Z,11.11
2023-04-18T23:35:55.033Z,11.08
2023-04-18T23:38:59.036Z,11.08
2023-04-18T23:42:03.060Z,11.10
2023-04-18T23:45:08.088Z,11.13
2023-04-18T23:48:12.519Z,11.12
2023-04-18T23:51:16.511Z,11.11
2023-04-18T23:54:20.429Z,11.09
2023-04-18T23:57:24.459Z,11.01
